Terminal Aerodrome Forecast
Issued by NWS

Home | Current Version | Previous Version | Text Only | Print | Product List | Glossary Off
Versions: 1 2 3 4 5 6 7 8 9 10 11 12 13 14 15 16 17 18 19 20 21

997
FTUS43 KMPX 200303 AAA
TAFRWF
TAF AMD
KRWF 200303Z 2003/2024 14016G25KT P6SM SCT040 WS020/16050KT
     FM200600 19017G26KT 6SM -TSRA BR OVC035CB WS020/19050KT
      TEMPO 2006/2010 2SM TSRA BR OVC025CB
     FM201000 23009KT P6SM BKN030
     FM201300 27011G19KT P6SM SCT150=

USA.gov is the U.S. government's official web portal to all federal, state and local government web resources and services.